sensor_id;sensor_type;location;lat;lon;timestamp;pressure;altitude;pressure_sealevel;temperature
76007;BMP280;64699;0.000;0.000;2023-02-07T00:01:10;102844.34;;;18.07
76007;BMP280;64699;0.000;0.000;2023-02-07T00:03:36;102836.09;;;18.07
76007;BMP280;64699;0.000;0.000;2023-02-07T00:06:09;102842.25;;;18.02
76007;BMP280;64699;0.000;0.000;2023-02-07T00:08:35;102841.31;;;18.05
76007;BMP280;64699;0.000;0.000;2023-02-07T00:11:05;102843.09;;;18.08
76007;BMP280;64699;0.000;0.000;2023-02-07T00:13:30;102826.31;;;18.06
76007;BMP280;64699;0.000;0.000;2023-02-07T00:15:56;102833.59;;;18.09
76007;BMP280;64699;0.000;0.000;2023-02-07T00:18:21;102830.09;;;18.08
76007;BMP280;64699;0.000;0.000;2023-02-07T00:20:56;102833.50;;;18.03
76007;BMP280;64699;0.000;0.000;2023-02-07T00:23:21;102829.50;;;18.04
76007;BMP280;64699;0.000;0.000;2023-02-07T00:25:47;102823.56;;;18.06
76007;BMP280;64699;0.000;0.000;2023-02-07T00:28:12;102819.41;;;18.10
76007;BMP280;64699;0.000;0.000;2023-02-07T00:30:38;102820.63;;;18.09
76007;BMP280;64699;0.000;0.000;2023-02-07T00:33:03;102825.34;;;18.09
76007;BMP280;64699;0.000;0.000;2023-02-07T00:35:29;102833.59;;;18.09
76007;BMP280;64699;0.000;0.000;2023-02-07T00:37:54;102833.34;;;18.07
76007;BMP280;64699;0.000;0.000;2023-02-07T00:40:20;102824.78;;;18.05
76007;BMP280;64699;0.000;0.000;2023-02-07T00:42:45;102829.84;;;18.06
76007;BMP280;64699;0.000;0.000;2023-02-07T00:45:11;102826.59;;;18.08
76007;BMP280;64699;0.000;0.000;2023-02-07T00:47:36;102823.56;;;18.06
76007;BMP280;64699;0.000;0.000;2023-02-07T00:50:02;102829.84;;;18.06
76007;BMP280;64699;0.000;0.000;2023-02-07T00:52:27;102820.19;;;18.11
76007;BMP280;64699;0.000;0.000;2023-02-07T00:54:53;102817.69;;;18.13
76007;BMP280;64699;0.000;0.000;2023-02-07T00:57:18;102811.41;;;18.12
76007;BMP280;64699;0.000;0.000;2023-02-07T00:59:44;102824.28;;;18.15
76007;BMP280;64699;0.000;0.000;2023-02-07T01:02:09;102810.69;;;18.12
76007;BMP280;64699;0.000;0.000;2023-02-07T01:04:34;102806.69;;;18.13
76007;BMP280;64699;0.000;0.000;2023-02-07T01:07:00;102811.25;;;18.16
76007;BMP280;64699;0.000;0.000;2023-02-07T01:09:25;102818.66;;;18.10
76007;BMP280;64699;0.000;0.000;2023-02-07T01:11:51;102821.69;;;18.12
76007;BMP280;64699;0.000;0.000;2023-02-07T01:14:16;102822.28;;;18.16
76007;BMP280;64699;0.000;0.000;2023-02-07T01:16:42;102804.22;;;18.15
76007;BMP280;64699;0.000;0.000;2023-02-07T01:19:08;102814.66;;;18.11
76007;BMP280;64699;0.000;0.000;2023-02-07T01:21:34;102815.41;;;18.11
76007;BMP280;64699;0.000;0.000;2023-02-07T01:23:59;102811.94;;;18.11
76007;BMP280;64699;0.000;0.000;2023-02-07T01:26:25;102812.19;;;18.13
76007;BMP280;64699;0.000;0.000;2023-02-07T01:28:52;102812.19;;;18.13
76007;BMP280;64699;0.000;0.000;2023-02-07T01:31:19;102818.47;;;18.13
76007;BMP280;64699;0.000;0.000;2023-02-07T01:33:46;102820.94;;;18.11
76007;BMP280;64699;0.000;0.000;2023-02-07T01:36:13;102827.22;;;18.12
76007;BMP280;64699;0.000;0.000;2023-02-07T01:38:39;102823.19;;;18.13
76007;BMP280;64699;0.000;0.000;2023-02-07T01:41:05;102822.41;;;18.12
76007;BMP280;64699;0.000;0.000;2023-02-07T01:43:31;102831.75;;;18.15
76007;BMP280;64699;0.000;0.000;2023-02-07T01:45:56;102830.22;;;18.14
76007;BMP280;64699;0.000;0.000;2023-02-07T01:48:29;102825.16;;;18.12
76007;BMP280;64699;0.000;0.000;2023-02-07T01:50:56;102827.22;;;18.12
76007;BMP280;64699;0.000;0.000;2023-02-07T01:53:24;102823.50;;;18.15
76007;BMP280;64699;0.000;0.000;2023-02-07T01:55:51;102811.94;;;18.11
76007;BMP280;64699;0.000;0.000;2023-02-07T01:58:18;102808.41;;;18.10
76007;BMP280;64699;0.000;0.000;2023-02-07T02:00:43;102813.16;;;18.10
76007;BMP280;64699;0.000;0.000;2023-02-07T02:03:09;102820.19;;;18.11
76007;BMP280;64699;0.000;0.000;2023-02-07T02:05:35;102824.72;;;18.14
76007;BMP280;64699;0.000;0.000;2023-02-07T02:08:01;102818.25;;;18.17
76007;BMP280;64699;0.000;0.000;2023-02-07T02:13:17;102822.41;;;18.12
76007;BMP280;64699;0.000;0.000;2023-02-07T02:21:23;102818.25;;;18.17
76007;BMP280;64699;0.000;0.000;2023-02-07T02:32:12;102803.00;;;18.16
76007;BMP280;64699;0.000;0.000;2023-02-07T02:37:16;102794.38;;;18.23
76007;BMP280;64699;0.000;0.000;2023-02-07T02:39:53;102786.59;;;18.21
76007;BMP280;64699;0.000;0.000;2023-02-07T02:45:11;102803.06;;;18.30
76007;BMP280;64699;0.000;0.000;2023-02-07T02:47:37;102796.31;;;18.31
76007;BMP280;64699;0.000;0.000;2023-02-07T02:50:08;102796.13;;;18.34
76007;BMP280;64699;0.000;0.000;2023-02-07T02:52:34;102792.44;;;18.37
76007;BMP280;64699;0.000;0.000;2023-02-07T02:54:59;102790.44;;;18.38
76007;BMP280;64699;0.000;0.000;2023-02-07T02:57:43;102802.22;;;18.38
76007;BMP280;64699;0.000;0.000;2023-02-07T03:00:32;102796.41;;;18.36
76007;BMP280;64699;0.000;0.000;2023-02-07T03:06:00;102799.34;;;18.33
76007;BMP280;64699;0.000;0.000;2023-02-07T03:08:30;102790.34;;;18.33
76007;BMP280;64699;0.000;0.000;2023-02-07T03:13:49;102794.88;;;18.35
76007;BMP280;64699;0.000;0.000;2023-02-07T03:18:50;102792.31;;;18.32
76007;BMP280;64699;0.000;0.000;2023-02-07T03:23:43;102796.41;;;18.36
76007;BMP280;64699;0.000;0.000;2023-02-07T03:26:10;102792.91;;;18.36
76007;BMP280;64699;0.000;0.000;2023-02-07T03:28:36;102787.88;;;18.34
76007;BMP280;64699;0.000;0.000;2023-02-07T03:31:03;102795.38;;;18.34
76007;BMP280;64699;0.000;0.000;2023-02-07T03:33:30;102790.91;;;18.36
76007;BMP280;64699;0.000;0.000;2023-02-07T03:38:41;102784.34;;;18.34
76007;BMP280;64699;0.000;0.000;2023-02-07T03:41:10;102782.09;;;18.33
76007;BMP280;64699;0.000;0.000;2023-02-07T03:43:39;102786.38;;;18.33
76007;BMP280;64699;0.000;0.000;2023-02-07T03:46:07;102789.88;;;18.34
76007;BMP280;64699;0.000;0.000;2023-02-07T03:48:32;102779.63;;;18.34
76007;BMP280;64699;0.000;0.000;2023-02-07T03:50:58;102780.84;;;18.33
76007;BMP280;64699;0.000;0.000;2023-02-07T03:53:23;102782.66;;;18.36
76007;BMP280;64699;0.000;0.000;2023-02-07T03:55:49;102781.13;;;18.35
76007;BMP280;64699;0.000;0.000;2023-02-07T03:58:15;102780.09;;;18.33
76007;BMP280;64699;0.000;0.000;2023-02-07T04:00:41;102789.88;;;18.34
76007;BMP280;64699;0.000;0.000;2023-02-07T04:03:06;102782.09;;;18.33
76007;BMP280;64699;0.000;0.000;2023-02-07T04:05:32;102774.28;;;18.31
76007;BMP280;64699;0.000;0.000;2023-02-07T04:08:00;102780.84;;;18.33
76007;BMP280;64699;0.000;0.000;2023-02-07T04:10:25;102778.75;;;18.29
76007;BMP280;64699;0.000;0.000;2023-02-07T04:12:51;102775.03;;;18.31
76007;BMP280;64699;0.000;0.000;2023-02-07T04:15:16;102776.25;;;18.30
76007;BMP280;64699;0.000;0.000;2023-02-07T04:17:41;102778.09;;;18.33
76007;BMP280;64699;0.000;0.000;2023-02-07T04:20:07;102777.59;;;18.35
76007;BMP280;64699;0.000;0.000;2023-02-07T04:22:33;102782.66;;;18.36
76007;BMP280;64699;0.000;0.000;2023-02-07T04:24:58;102775.91;;;18.37
76007;BMP280;64699;0.000;0.000;2023-02-07T04:27:24;102769.06;;;18.33
76007;BMP280;64699;0.000;0.000;2023-02-07T04:29:50;102773.16;;;18.37
76007;BMP280;64699;0.000;0.000;2023-02-07T04:32:15;102775.72;;;18.41
76007;BMP280;64699;0.000;0.000;2023-02-07T04:34:41;102763.09;;;18.34
76007;BMP280;64699;0.000;0.000;2023-02-07T04:37:06;102769.66;;;18.37
76007;BMP280;64699;0.000;0.000;2023-02-07T04:39:32;102763.66;;;18.38
76007;BMP280;64699;0.000;0.000;2023-02-07T04:41:57;102766.41;;;18.38
76007;BMP280;64699;0.000;0.000;2023-02-07T04:44:23;102754.16;;;18.39
76007;BMP280;64699;0.000;0.000;2023-02-07T04:46:48;102753.59;;;18.35
76007;BMP280;64699;0.000;0.000;2023-02-07T04:49:14;102746.41;;;18.38
76007;BMP280;64699;0.000;0.000;2023-02-07T04:51:39;102745.34;;;18.35
76007;BMP280;64699;0.000;0.000;2023-02-07T04:54:05;102750.25;;;18.31
76007;BMP280;64699;0.000;0.000;2023-02-07T04:56:30;102753.59;;;18.35
76007;BMP280;64699;0.000;0.000;2023-02-07T04:58:56;102742.59;;;18.35
76007;BMP280;64699;0.000;0.000;2023-02-07T05:01:21;102743.16;;;18.25
76007;BMP280;64699;0.000;0.000;2023-02-07T05:03:47;102741.75;;;18.30
76007;BMP280;64699;0.000;0.000;2023-02-07T05:06:12;102745.81;;;18.34
76007;BMP280;64699;0.000;0.000;2023-02-07T05:08:38;102746.31;;;18.33
76007;BMP280;64699;0.000;0.000;2023-02-07T05:11:03;102748.47;;;18.29
76007;BMP280;64699;0.000;0.000;2023-02-07T05:13:30;102754.91;;;18.26
76007;BMP280;64699;0.000;0.000;2023-02-07T05:15:55;102762.22;;;18.29
76007;BMP280;64699;0.000;0.000;2023-02-07T05:18:21;102758.69;;;18.28
76007;BMP280;64699;0.000;0.000;2023-02-07T05:20:47;102756.44;;;18.27
76007;BMP280;64699;0.000;0.000;2023-02-07T05:23:12;102757.97;;;18.28
76007;BMP280;64699;0.000;0.000;2023-02-07T05:25:40;102761.94;;;18.27
76007;BMP280;64699;0.000;0.000;2023-02-07T05:28:05;102758.69;;;18.28
76007;BMP280;64699;0.000;0.000;2023-02-07T05:30:31;102764.97;;;18.29
76007;BMP280;64699;0.000;0.000;2023-02-07T05:32:56;102754.75;;;18.29
76007;BMP280;64699;0.000;0.000;2023-02-07T05:35:28;102761.47;;;18.28
76007;BMP280;64699;0.000;0.000;2023-02-07T05:37:53;102756.28;;;18.30
76007;BMP280;64699;0.000;0.000;2023-02-07T05:40:19;102752.75;;;18.30
76007;BMP280;64699;0.000;0.000;2023-02-07T05:42:45;102753.78;;;18.32
76007;BMP280;64699;0.000;0.000;2023-02-07T05:45:11;102750.59;;;18.33
76007;BMP280;64699;0.000;0.000;2023-02-07T05:47:36;102758.31;;;18.35
76007;BMP280;64699;0.000;0.000;2023-02-07T05:50:02;102743.22;;;18.30
76007;BMP280;64699;0.000;0.000;2023-02-07T05:52:28;102748.47;;;18.29
76007;BMP280;64699;0.000;0.000;2023-02-07T05:54:53;102751.47;;;18.30
76007;BMP280;64699;0.000;0.000;2023-02-07T05:57:19;102752.25;;;18.31
76007;BMP280;64699;0.000;0.000;2023-02-07T05:59:45;102749.25;;;18.29
76007;BMP280;64699;0.000;0.000;2023-02-07T06:02:10;102756.09;;;18.33
76007;BMP280;64699;0.000;0.000;2023-02-07T06:04:35;102743.56;;;18.33
76007;BMP280;64699;0.000;0.000;2023-02-07T06:07:01;102750.78;;;18.30
76007;BMP280;64699;0.000;0.000;2023-02-07T06:09:26;102755.00;;;18.31
76007;BMP280;64699;0.000;0.000;2023-02-07T06:11:52;102756.28;;;18.30
76007;BMP280;64699;0.000;0.000;2023-02-07T06:14:22;102757.31;;;18.33
76007;BMP280;64699;0.000;0.000;2023-02-07T06:16:47;102768.88;;;18.36
76007;BMP280;64699;0.000;0.000;2023-02-07T06:19:13;102753.59;;;18.35
76007;BMP280;64699;0.000;0.000;2023-02-07T06:21:39;102755.50;;;18.30
76007;BMP280;64699;0.000;0.000;2023-02-07T06:27:14;102770.13;;;18.35
76007;BMP280;64699;0.000;0.000;2023-02-07T06:29:39;102769.84;;;18.33
76007;BMP280;64699;0.000;0.000;2023-02-07T06:32:05;102780.09;;;18.33
76007;BMP280;64699;0.000;0.000;2023-02-07T06:34:31;102773.81;;;18.33
76007;BMP280;64699;0.000;0.000;2023-02-07T06:36:57;102775.34;;;18.33
76007;BMP280;64699;0.000;0.000;2023-02-07T06:39:22;102771.06;;;18.33
76007;BMP280;64699;0.000;0.000;2023-02-07T06:41:48;102771.38;;;18.34
76007;BMP280;64699;0.000;0.000;2023-02-07T06:44:13;102772.41;;;18.37
76007;BMP280;64699;0.000;0.000;2023-02-07T06:46:39;102774.69;;;18.38
76007;BMP280;64699;0.000;0.000;2023-02-07T06:49:04;102777.91;;;18.37
76007;BMP280;64699;0.000;0.000;2023-02-07T06:51:30;102778.84;;;18.34
76007;BMP280;64699;0.000;0.000;2023-02-07T06:53:56;102792.31;;;18.32
76007;BMP280;64699;0.000;0.000;2023-02-07T06:56:32;102788.53;;;18.30
76007;BMP280;64699;0.000;0.000;2023-02-07T06:58:58;102785.78;;;18.30
76007;BMP280;64699;0.000;0.000;2023-02-07T07:01:23;102793.84;;;18.33
76007;BMP280;64699;0.000;0.000;2023-02-07T07:03:49;102800.88;;;18.34
76007;BMP280;64699;0.000;0.000;2023-02-07T07:06:15;102798.41;;;18.36
76007;BMP280;64699;0.000;0.000;2023-02-07T07:08:41;102802.94;;;18.39
76007;BMP280;64699;0.000;0.000;2023-02-07T07:11:06;102806.19;;;18.37
76007;BMP280;64699;0.000;0.000;2023-02-07T07:13:32;102812.19;;;18.36
76007;BMP280;64699;0.000;0.000;2023-02-07T07:15:58;102797.63;;;18.35
76007;BMP280;64699;0.000;0.000;2023-02-07T07:18:23;102797.19;;;18.37
76007;BMP280;64699;0.000;0.000;2023-02-07T07:20:52;102793.19;;;18.38
76007;BMP280;64699;0.000;0.000;2023-02-07T07:23:18;102796.69;;;18.38
76007;BMP280;64699;0.000;0.000;2023-02-07T07:25:44;102798.19;;;18.39
76007;BMP280;64699;0.000;0.000;2023-02-07T07:28:10;102798.19;;;18.39
76007;BMP280;64699;0.000;0.000;2023-02-07T07:30:35;102810.75;;;18.40
76007;BMP280;64699;0.000;0.000;2023-02-07T07:33:01;102809.97;;;18.40
76007;BMP280;64699;0.000;0.000;2023-02-07T07:35:26;102801.28;;;18.41
76007;BMP280;64699;0.000;0.000;2023-02-07T07:37:52;102810.56;;;18.44
76007;BMP280;64699;0.000;0.000;2023-02-07T07:40:18;102812.09;;;18.45
76007;BMP280;64699;0.000;0.000;2023-02-07T07:42:43;102808.84;;;18.46
76007;BMP280;64699;0.000;0.000;2023-02-07T07:45:12;102810.56;;;18.44
76007;BMP280;64699;0.000;0.000;2023-02-07T07:47:38;102814.38;;;18.46
76007;BMP280;64699;0.000;0.000;2023-02-07T07:50:04;102822.34;;;18.44
76007;BMP280;64699;0.000;0.000;2023-02-07T07:52:29;102827.28;;;18.40
76007;BMP280;64699;0.000;0.000;2023-02-07T07:55:00;102823.09;;;18.45
76007;BMP280;64699;0.000;0.000;2023-02-07T07:57:25;102825.84;;;18.45
76007;BMP280;64699;0.000;0.000;2023-02-07T07:59:55;102822.34;;;18.44
76007;BMP280;64699;0.000;0.000;2023-02-07T08:02:21;102831.66;;;18.47
76007;BMP280;64699;0.000;0.000;2023-02-07T08:04:48;102837.34;;;18.43
76007;BMP280;64699;0.000;0.000;2023-02-07T08:07:14;102836.41;;;18.46
76007;BMP280;64699;0.000;0.000;2023-02-07T08:09:39;102834.13;;;18.45
76007;BMP280;64699;0.000;0.000;2023-02-07T08:12:05;102841.03;;;18.40
76007;BMP280;64699;0.000;0.000;2023-02-07T08:14:30;102840.66;;;18.47
76007;BMP280;64699;0.000;0.000;2023-02-07T08:16:56;102841.16;;;18.46
76007;BMP280;64699;0.000;0.000;2023-02-07T08:20:04;102847.88;;;18.45
76007;BMP280;64699;0.000;0.000;2023-02-07T08:22:15;102848.94;;;18.47
76007;BMP280;64699;0.000;0.000;2023-02-07T08:24:40;102856.91;;;18.45
76007;BMP280;64699;0.000;0.000;2023-02-07T08:27:06;102861.47;;;18.48
76007;BMP280;64699;0.000;0.000;2023-02-07T08:29:32;102856.72;;;18.49
76007;BMP280;64699;0.000;0.000;2023-02-07T08:31:59;102855.22;;;18.48
76007;BMP280;64699;0.000;0.000;2023-02-07T08:34:25;102859.31;;;18.52
76007;BMP280;64699;0.000;0.000;2023-02-07T08:36:53;102862.06;;;18.52
76007;BMP280;64699;0.000;0.000;2023-02-07T08:39:24;102860.81;;;18.53
76007;BMP280;64699;0.000;0.000;2023-02-07T08:41:53;102860.81;;;18.53
76007;BMP280;64699;0.000;0.000;2023-02-07T08:44:20;102863.56;;;18.53
76007;BMP280;64699;0.000;0.000;2023-02-07T08:46:46;102859.31;;;18.52
76007;BMP280;64699;0.000;0.000;2023-02-07T08:49:11;102862.06;;;18.52
76007;BMP280;64699;0.000;0.000;2023-02-07T08:51:37;102868.00;;;18.51
76007;BMP280;64699;0.000;0.000;2023-02-07T08:54:08;102869.25;;;18.50
76007;BMP280;64699;0.000;0.000;2023-02-07T08:56:34;102867.56;;;18.52
76007;BMP280;64699;0.000;0.000;2023-02-07T08:59:03;102875.34;;;18.54
76007;BMP280;64699;0.000;0.000;2023-02-07T09:01:28;102876.28;;;18.51
76007;BMP280;64699;0.000;0.000;2023-02-07T09:03:54;102883.50;;;18.48
76007;BMP280;64699;0.000;0.000;2023-02-07T09:06:24;102879.50;;;18.49
76007;BMP280;64699;0.000;0.000;2023-02-07T09:08:53;102875.53;;;18.50
76007;BMP280;64699;0.000;0.000;2023-02-07T09:11:26;102876.88;;;18.55
76007;BMP280;64699;0.000;0.000;2023-02-07T09:13:51;102882.56;;;18.51
76007;BMP280;64699;0.000;0.000;2023-02-07T09:16:17;102884.72;;;18.47
76007;BMP280;64699;0.000;0.000;2023-02-07T09:18:42;102870.22;;;18.47
76007;BMP280;64699;0.000;0.000;2023-02-07T09:21:08;102883.34;;;18.52
76007;BMP280;64699;0.000;0.000;2023-02-07T09:23:33;102877.06;;;18.51
76007;BMP280;64699;0.000;0.000;2023-02-07T09:26:02;102878.38;;;18.56
76007;BMP280;64699;0.000;0.000;2023-02-07T09:28:27;102866.31;;;18.53
76007;BMP280;64699;0.000;0.000;2023-02-07T09:30:53;102867.56;;;18.52
76007;BMP280;64699;0.000;0.000;2023-02-07T09:33:22;102868.16;;;18.56
76007;BMP280;64699;0.000;0.000;2023-02-07T09:35:48;102862.66;;;18.56
76007;BMP280;64699;0.000;0.000;2023-02-07T09:38:19;102863.56;;;18.53
76007;BMP280;64699;0.000;0.000;2023-02-07T09:40:45;102861.56;;;18.54
76007;BMP280;64699;0.000;0.000;2023-02-07T09:45:44;102855.03;;;18.51
76007;BMP280;64699;0.000;0.000;2023-02-07T09:48:25;102854.06;;;18.54
76007;BMP280;64699;0.000;0.000;2023-02-07T09:50:53;102856.56;;;18.52
76007;BMP280;64699;0.000;0.000;2023-02-07T09:53:54;102858.63;;;18.57
76007;BMP280;64699;0.000;0.000;2023-02-07T09:56:22;102854.84;;;18.55
76007;BMP280;64699;0.000;0.000;2023-02-07T09:59:03;102852.53;;;18.53
76007;BMP280;64699;0.000;0.000;2023-02-07T10:01:36;102842.50;;;18.50
76007;BMP280;64699;0.000;0.000;2023-02-07T10:04:07;102843.53;;;18.53
76007;BMP280;64699;0.000;0.000;2023-02-07T10:06:37;102849.53;;;18.51
76007;BMP280;64699;0.000;0.000;2023-02-07T10:09:07;102840.03;;;18.52
76007;BMP280;64699;0.000;0.000;2023-02-07T10:11:47;102842.50;;;18.50
76007;BMP280;64699;0.000;0.000;2023-02-07T10:16:50;102830.34;;;18.57
76007;BMP280;64699;0.000;0.000;2023-02-07T10:19:31;102837.53;;;18.54
76007;BMP280;64699;0.000;0.000;2023-02-07T10:22:13;102835.09;;;18.56
76007;BMP280;64699;0.000;0.000;2023-02-07T10:30:27;102821.03;;;18.54
76007;BMP280;64699;0.000;0.000;2023-02-07T10:32:53;102818.59;;;18.56
76007;BMP280;64699;0.000;0.000;2023-02-07T10:35:26;102820.06;;;18.57
76007;BMP280;64699;0.000;0.000;2023-02-07T10:37:55;102825.00;;;18.53
76007;BMP280;64699;0.000;0.000;2023-02-07T10:40:33;102826.84;;;18.56
76007;BMP280;64699;0.000;0.000;2023-02-07T10:43:10;102828.34;;;18.57
76007;BMP280;64699;0.000;0.000;2023-02-07T10:45:37;102826.53;;;18.54
76007;BMP280;64699;0.000;0.000;2023-02-07T10:48:16;102830.34;;;18.57
76007;BMP280;64699;0.000;0.000;2023-02-07T10:50:43;102827.66;;;18.62
76007;BMP280;64699;0.000;0.000;2023-02-07T10:53:09;102826.19;;;18.61
76007;BMP280;64699;0.000;0.000;2023-02-07T10:55:36;102829.22;;;18.63
76007;BMP280;64699;0.000;0.000;2023-02-07T10:58:03;102828.63;;;18.59
76007;BMP280;64699;0.000;0.000;2023-02-07T11:00:30;102818.41;;;18.60
76007;BMP280;64699;0.000;0.000;2023-02-07T11:03:03;102826.91;;;18.62
76007;BMP280;64699;0.000;0.000;2023-02-07T11:05:30;102825.69;;;18.63
76007;BMP280;64699;0.000;0.000;2023-02-07T11:07:57;102823.03;;;18.68
76007;BMP280;64699;0.000;0.000;2023-02-07T11:10:24;102826.75;;;18.65
76007;BMP280;64699;0.000;0.000;2023-02-07T11:12:54;102814.97;;;18.65
76007;BMP280;64699;0.000;0.000;2023-02-07T11:15:21;102814.22;;;18.64
76007;BMP280;64699;0.000;0.000;2023-02-07T11:17:48;102810.13;;;18.60
76007;BMP280;64699;0.000;0.000;2023-02-07T11:20:19;102812.69;;;18.63
76007;BMP280;64699;0.000;0.000;2023-02-07T11:22:49;102801.88;;;18.60
76007;BMP280;64699;0.000;0.000;2023-02-07T11:25:15;102804.16;;;18.61
76007;BMP280;64699;0.000;0.000;2023-02-07T11:27:41;102803.84;;;18.59
76007;BMP280;64699;0.000;0.000;2023-02-07T11:30:08;102806.72;;;18.65
76007;BMP280;64699;0.000;0.000;2023-02-07T11:32:34;102805.00;;;18.67
76007;BMP280;64699;0.000;0.000;2023-02-07T11:35:09;102799.78;;;18.69
76007;BMP280;64699;0.000;0.000;2023-02-07T11:37:46;102804.34;;;18.72
76007;BMP280;64699;0.000;0.000;2023-02-07T11:42:45;102805.88;;;18.73
76007;BMP280;64699;0.000;0.000;2023-02-07T11:45:13;102800.34;;;18.73
76007;BMP280;64699;0.000;0.000;2023-02-07T11:47:40;102801.28;;;18.70
76007;BMP280;64699;0.000;0.000;2023-02-07T11:50:06;102798.25;;;18.68
76007;BMP280;64699;0.000;0.000;2023-02-07T11:52:35;102813.84;;;18.71
76007;BMP280;64699;0.000;0.000;2023-02-07T11:55:02;102813.84;;;18.71
76007;BMP280;64699;0.000;0.000;2023-02-07T11:57:31;102811.38;;;18.73
76007;BMP280;64699;0.000;0.000;2023-02-07T12:02:34;102815.34;;;18.72
76007;BMP280;64699;0.000;0.000;2023-02-07T12:07:56;102808.81;;;18.70
76007;BMP280;64699;0.000;0.000;2023-02-07T12:10:24;102807.38;;;18.74
76007;BMP280;64699;0.000;0.000;2023-02-07T12:12:59;102800.34;;;18.73
76007;BMP280;64699;0.000;0.000;2023-02-07T12:15:30;102804.91;;;18.76
76007;BMP280;64699;0.000;0.000;2023-02-07T12:18:39;102806.63;;;18.74
76007;BMP280;64699;0.000;0.000;2023-02-07T12:25:50;102804.91;;;18.76
76007;BMP280;64699;0.000;0.000;2023-02-07T12:28:26;102805.19;;;18.78
76007;BMP280;64699;0.000;0.000;2023-02-07T12:30:56;102819.19;;;18.75
76007;BMP280;64699;0.000;0.000;2023-02-07T12:33:26;102817.16;;;18.75
76007;BMP280;64699;0.000;0.000;2023-02-07T12:36:09;102817.91;;;18.76
76007;BMP280;64699;0.000;0.000;2023-02-07T12:41:14;102822.66;;;18.75
76007;BMP280;64699;0.000;0.000;2023-02-07T12:51:55;102818.66;;;18.76
76007;BMP280;64699;0.000;0.000;2023-02-07T12:57:34;102816.69;;;18.77
76007;BMP280;64699;0.000;0.000;2023-02-07T13:05:17;102813.25;;;18.82
76007;BMP280;64699;0.000;0.000;2023-02-07T13:13:16;102827.03;;;18.82
76007;BMP280;64699;0.000;0.000;2023-02-07T13:23:19;102826.03;;;18.79
76007;BMP280;64699;0.000;0.000;2023-02-07T13:25:46;102826.84;;;18.85
76007;BMP280;64699;0.000;0.000;2023-02-07T13:28:32;102826.03;;;18.79
76007;BMP280;64699;0.000;0.000;2023-02-07T13:31:00;102835.28;;;18.82
76007;BMP280;64699;0.000;0.000;2023-02-07T13:33:28;102831.78;;;18.81
76007;BMP280;64699;0.000;0.000;2023-02-07T13:35:59;102832.09;;;18.83
76007;BMP280;64699;0.000;0.000;2023-02-07T13:41:22;102837.75;;;18.80
76007;BMP280;64699;0.000;0.000;2023-02-07T13:51:50;102837.94;;;18.76
76007;BMP280;64699;0.000;0.000;2023-02-07T13:54:47;102838.47;;;18.75
76007;BMP280;64699;0.000;0.000;2023-02-07T14:00:22;102847.44;;;18.75
76007;BMP280;64699;0.000;0.000;2023-02-07T14:02:51;102842.91;;;18.72
76007;BMP280;64699;0.000;0.000;2023-02-07T14:05:19;102841.94;;;18.75
76007;BMP280;64699;0.000;0.000;2023-02-07T14:07:53;102845.47;;;18.76
76007;BMP280;64699;0.000;0.000;2023-02-07T14:10:33;102843.47;;;18.76
76007;BMP280;64699;0.000;0.000;2023-02-07T14:13:00;102845.19;;;18.74
76007;BMP280;64699;0.000;0.000;2023-02-07T14:17:56;102845.75;;;18.78
76007;BMP280;64699;0.000;0.000;2023-02-07T14:38:31;102848.41;;;18.72
76007;BMP280;64699;0.000;0.000;2023-02-07T14:41:00;102850.88;;;18.70
76007;BMP280;64699;0.000;0.000;2023-02-07T14:43:33;102848.59;;;18.69
76007;BMP280;64699;0.000;0.000;2023-02-07T14:46:04;102854.84;;;18.69
76007;BMP280;64699;0.000;0.000;2023-02-07T14:57:05;102865.22;;;18.74
76007;BMP280;64699;0.000;0.000;2023-02-07T14:59:42;102864.16;;;18.72
76007;BMP280;64699;0.000;0.000;2023-02-07T15:04:52;102873.50;;;18.74
76007;BMP280;64699;0.000;0.000;2023-02-07T15:07:18;102862.47;;;18.74
76007;BMP280;64699;0.000;0.000;2023-02-07T15:09:43;102873.50;;;18.74
76007;BMP280;64699;0.000;0.000;2023-02-07T15:12:09;102875.66;;;18.70
76007;BMP280;64699;0.000;0.000;2023-02-07T15:14:38;102877.66;;;18.70
76007;BMP280;64699;0.000;0.000;2023-02-07T15:17:04;102874.13;;;18.69
76007;BMP280;64699;0.000;0.000;2023-02-07T15:22:23;102871.38;;;18.69
76007;BMP280;64699;0.000;0.000;2023-02-07T15:24:50;102868.91;;;18.71
76007;BMP280;64699;0.000;0.000;2023-02-07T15:27:20;102874.44;;;18.71
76007;BMP280;64699;0.000;0.000;2023-02-07T15:29:59;102875.97;;;18.72
76007;BMP280;64699;0.000;0.000;2023-02-07T15:32:27;102876.41;;;18.71
76007;BMP280;64699;0.000;0.000;2023-02-07T15:34:55;102878.22;;;18.74
76007;BMP280;64699;0.000;0.000;2023-02-07T15:37:22;102883.19;;;18.70
76007;BMP280;64699;0.000;0.000;2023-02-07T15:39:50;102884.78;;;18.76
76007;BMP280;64699;0.000;0.000;2023-02-07T15:42:17;102882.81;;;18.77
76007;BMP280;64699;0.000;0.000;2023-02-07T15:44:47;102882.03;;;18.76
76007;BMP280;64699;0.000;0.000;2023-02-07T15:47:29;102886.00;;;18.75
76007;BMP280;64699;0.000;0.000;2023-02-07T15:49:58;102894.75;;;18.74
76007;BMP280;64699;0.000;0.000;2023-02-07T15:54:50;102889.06;;;18.77
76007;BMP280;64699;0.000;0.000;2023-02-07T15:57:21;102898.00;;;18.72
76007;BMP280;64699;0.000;0.000;2023-02-07T15:59:48;102903.69;;;18.69
76007;BMP280;64699;0.000;0.000;2023-02-07T16:02:33;102913.75;;;18.72
76007;BMP280;64699;0.000;0.000;2023-02-07T16:05:09;102904.44;;;18.69
76007;BMP280;64699;0.000;0.000;2023-02-07T16:07:35;102904.13;;;18.67
76007;BMP280;64699;0.000;0.000;2023-02-07T16:10:30;102902.91;;;18.68
76007;BMP280;64699;0.000;0.000;2023-02-07T16:13:02;102908.41;;;18.68
76007;BMP280;64699;0.000;0.000;2023-02-07T16:15:29;102907.66;;;18.68
76007;BMP280;64699;0.000;0.000;2023-02-07T16:17:56;102903.09;;;18.65
76007;BMP280;64699;0.000;0.000;2023-02-07T16:20:22;102915.44;;;18.69
76007;BMP280;64699;0.000;0.000;2023-02-07T16:22:49;102915.44;;;18.69
76007;BMP280;64699;0.000;0.000;2023-02-07T16:25:19;102908.72;;;18.70
76007;BMP280;64699;0.000;0.000;2023-02-07T16:27:45;102924.00;;;18.71
76007;BMP280;64699;0.000;0.000;2023-02-07T16:30:12;102922.47;;;18.70
76007;BMP280;64699;0.000;0.000;2023-02-07T16:32:38;102921.56;;;18.73
76007;BMP280;64699;0.000;0.000;2023-02-07T16:35:08;102921.25;;;18.71
76007;BMP280;64699;0.000;0.000;2023-02-07T16:37:35;102926.00;;;18.71
76007;BMP280;64699;0.000;0.000;2023-02-07T16:40:01;102930.75;;;18.70